sensor_id;sensor_type;location;lat;lon;timestamp;pressure;altitude;pressure_sealevel;temperature;humidity
66381;BME280;53177;52.648;1.214;2023-04-05T00:01:22;102060.22;;;3.98;71.75
66381;BME280;53177;52.648;1.214;2023-04-05T00:03:50;102055.00;;;4.00;71.84
66381;BME280;53177;52.648;1.214;2023-04-05T00:06:16;102055.69;;;3.91;72.32
66381;BME280;53177;52.648;1.214;2023-04-05T00:08:42;102049.63;;;3.93;71.72
66381;BME280;53177;52.648;1.214;2023-04-05T00:11:15;102059.59;;;4.08;71.04
66381;BME280;53177;52.648;1.214;2023-04-05T00:13:41;102052.78;;;4.15;70.57
66381;BME280;53177;52.648;1.214;2023-04-05T00:16:07;102048.31;;;4.11;70.76
66381;BME280;53177;52.648;1.214;2023-04-05T00:18:32;102042.53;;;4.24;70.49
66381;BME280;53177;52.648;1.214;2023-04-05T00:20:58;102034.63;;;4.22;70.71
66381;BME280;53177;52.648;1.214;2023-04-05T00:23:24;102027.22;;;4.05;71.12
66381;BME280;53177;52.648;1.214;2023-04-05T00:25:50;102030.94;;;4.14;70.77
66381;BME280;53177;52.648;1.214;2023-04-05T00:28:16;102022.91;;;4.07;71.37
66381;BME280;53177;52.648;1.214;2023-04-05T00:30:41;102026.41;;;4.07;70.89
66381;BME280;53177;52.648;1.214;2023-04-05T00:33:07;102017.38;;;3.95;71.29
66381;BME280;53177;52.648;1.214;2023-04-05T00:35:32;102016.03;;;3.76;71.96
66381;BME280;53177;52.648;1.214;2023-04-05T00:37:57;102008.13;;;3.73;72.20
66381;BME280;53177;52.648;1.214;2023-04-05T00:40:25;102004.00;;;3.82;72.12
66381;BME280;53177;52.648;1.214;2023-04-05T00:42:51;102002.13;;;3.78;72.46
66381;BME280;53177;52.648;1.214;2023-04-05T00:45:16;101996.41;;;3.93;71.42
66381;BME280;53177;52.648;1.214;2023-04-05T00:47:43;101994.72;;;3.95;71.24
66381;BME280;53177;52.648;1.214;2023-04-05T00:50:09;101996.44;;;3.95;71.19
66381;BME280;53177;52.648;1.214;2023-04-05T00:52:36;101990.97;;;3.85;71.49
66381;BME280;53177;52.648;1.214;2023-04-05T00:55:09;101991.03;;;3.87;71.76
66381;BME280;53177;52.648;1.214;2023-04-05T00:57:35;101984.97;;;3.88;71.53
66381;BME280;53177;52.648;1.214;2023-04-05T01:00:05;101981.22;;;3.78;71.95
66381;BME280;53177;52.648;1.214;2023-04-05T01:02:40;101975.91;;;3.75;71.88
66381;BME280;53177;52.648;1.214;2023-04-05T01:05:24;101968.88;;;3.73;72.20
66381;BME280;53177;52.648;1.214;2023-04-05T01:08:21;101970.53;;;3.69;72.70
66381;BME280;53177;52.648;1.214;2023-04-05T01:10:56;101966.91;;;3.64;72.49
66381;BME280;53177;52.648;1.214;2023-04-05T01:13:28;101966.78;;;3.60;72.79
66381;BME280;53177;52.648;1.214;2023-04-05T01:15:53;101958.66;;;3.49;73.39
66381;BME280;53177;52.648;1.214;2023-04-05T01:18:19;101959.31;;;3.40;73.85
66381;BME280;53177;52.648;1.214;2023-04-05T01:20:51;101954.81;;;3.35;74.32
66381;BME280;53177;52.648;1.214;2023-04-05T01:23:35;101953.16;;;3.38;74.23
66381;BME280;53177;52.648;1.214;2023-04-05T01:31:36;101943.13;;;3.22;75.22
66381;BME280;53177;52.648;1.214;2023-04-05T01:37:01;101950.69;;;3.12;75.51
66381;BME280;53177;52.648;1.214;2023-04-05T01:39:27;101948.34;;;3.21;75.32
66381;BME280;53177;52.648;1.214;2023-04-05T01:42:01;101949.59;;;3.04;75.91
66381;BME280;53177;52.648;1.214;2023-04-05T01:44:28;101949.34;;;2.94;76.78
66381;BME280;53177;52.648;1.214;2023-04-05T01:46:54;101948.13;;;3.13;75.69
66381;BME280;53177;52.648;1.214;2023-04-05T01:49:19;101945.94;;;3.28;74.95
66381;BME280;53177;52.648;1.214;2023-04-05T01:51:45;101943.41;;;3.33;74.73
66381;BME280;53177;52.648;1.214;2023-04-05T01:54:10;101937.00;;;3.22;75.24
66381;BME280;53177;52.648;1.214;2023-04-05T01:56:36;101935.34;;;3.24;74.92
66381;BME280;53177;52.648;1.214;2023-04-05T01:59:01;101933.91;;;3.35;74.57
66381;BME280;53177;52.648;1.214;2023-04-05T02:01:26;101929.31;;;3.26;74.62
66381;BME280;53177;52.648;1.214;2023-04-05T02:03:52;101929.56;;;3.35;74.40
66381;BME280;53177;52.648;1.214;2023-04-05T02:06:17;101920.66;;;3.29;74.35
66381;BME280;53177;52.648;1.214;2023-04-05T02:08:43;101915.97;;;3.16;75.29
66381;BME280;53177;52.648;1.214;2023-04-05T02:11:08;101917.47;;;3.08;75.57
66381;BME280;53177;52.648;1.214;2023-04-05T02:13:33;101917.03;;;2.91;76.25
66381;BME280;53177;52.648;1.214;2023-04-05T02:15:59;101916.31;;;2.97;76.16
66381;BME280;53177;52.648;1.214;2023-04-05T02:18:24;101911.94;;;2.96;76.46
66381;BME280;53177;52.648;1.214;2023-04-05T02:21:06;101910.28;;;2.99;76.28
66381;BME280;53177;52.648;1.214;2023-04-05T02:23:32;101902.19;;;2.59;77.88
66381;BME280;53177;52.648;1.214;2023-04-05T02:25:59;101905.28;;;2.75;77.42
66381;BME280;53177;52.648;1.214;2023-04-05T02:28:24;101896.69;;;2.81;77.33
66381;BME280;53177;52.648;1.214;2023-04-05T02:30:50;101903.09;;;2.92;77.04
66381;BME280;53177;52.648;1.214;2023-04-05T02:33:15;101905.22;;;3.05;76.27
66381;BME280;53177;52.648;1.214;2023-04-05T02:35:41;101904.13;;;2.97;76.55
66381;BME280;53177;52.648;1.214;2023-04-05T02:38:06;101905.00;;;2.98;76.57
66381;BME280;53177;52.648;1.214;2023-04-05T02:40:33;101902.78;;;2.80;77.26
66381;BME280;53177;52.648;1.214;2023-04-05T02:42:58;101902.13;;;2.88;77.13
66381;BME280;53177;52.648;1.214;2023-04-05T02:45:24;101896.81;;;2.84;77.17
66381;BME280;53177;52.648;1.214;2023-04-05T02:47:52;101899.13;;;2.73;77.86
66381;BME280;53177;52.648;1.214;2023-04-05T02:50:18;101893.56;;;2.61;78.35
66381;BME280;53177;52.648;1.214;2023-04-05T02:52:48;101903.41;;;2.41;79.53
66381;BME280;53177;52.648;1.214;2023-04-05T02:55:14;101905.09;;;2.69;78.54
66381;BME280;53177;52.648;1.214;2023-04-05T02:57:41;101891.47;;;2.79;77.91
66381;BME280;53177;52.648;1.214;2023-04-05T03:00:07;101891.78;;;2.60;78.60
66381;BME280;53177;52.648;1.214;2023-04-05T03:02:33;101887.75;;;2.71;78.03
66381;BME280;53177;52.648;1.214;2023-04-05T03:04:58;101882.84;;;2.52;78.95
66381;BME280;53177;52.648;1.214;2023-04-05T03:07:26;101882.31;;;2.64;78.79
66381;BME280;53177;52.648;1.214;2023-04-05T03:09:52;101878.13;;;2.70;78.15
66381;BME280;53177;52.648;1.214;2023-04-05T03:12:18;101882.09;;;2.56;78.56
66381;BME280;53177;52.648;1.214;2023-04-05T03:14:43;101875.97;;;2.56;78.44
66381;BME280;53177;52.648;1.214;2023-04-05T03:17:10;101871.63;;;2.55;78.86
66381;BME280;53177;52.648;1.214;2023-04-05T03:19:39;101864.03;;;2.64;78.51
66381;BME280;53177;52.648;1.214;2023-04-05T03:22:04;101867.38;;;2.58;78.66
66381;BME280;53177;52.648;1.214;2023-04-05T03:24:31;101863.44;;;2.42;79.28
66381;BME280;53177;52.648;1.214;2023-04-05T03:27:00;101860.53;;;2.32;80.11
66381;BME280;53177;52.648;1.214;2023-04-05T03:29:26;101858.78;;;2.32;80.05
66381;BME280;53177;52.648;1.214;2023-04-05T03:31:52;101857.63;;;2.23;80.55
66381;BME280;53177;52.648;1.214;2023-04-05T03:34:17;101856.28;;;2.37;80.01
66381;BME280;53177;52.648;1.214;2023-04-05T03:36:42;101856.06;;;2.29;80.36
66381;BME280;53177;52.648;1.214;2023-04-05T03:39:08;101851.13;;;2.38;79.93
66381;BME280;53177;52.648;1.214;2023-04-05T03:41:35;101850.50;;;2.47;79.60
66381;BME280;53177;52.648;1.214;2023-04-05T03:44:00;101852.03;;;2.40;80.08
66381;BME280;53177;52.648;1.214;2023-04-05T03:46:25;101848.97;;;2.55;79.52
66381;BME280;53177;52.648;1.214;2023-04-05T03:48:51;101847.53;;;2.65;78.90
66381;BME280;53177;52.648;1.214;2023-04-05T03:51:16;101852.00;;;2.70;78.56
66381;BME280;53177;52.648;1.214;2023-04-05T03:53:43;101840.44;;;2.61;78.73
66381;BME280;53177;52.648;1.214;2023-04-05T03:56:08;101837.69;;;2.56;79.06
66381;BME280;53177;52.648;1.214;2023-04-05T03:58:35;101840.63;;;2.37;79.72
66381;BME280;53177;52.648;1.214;2023-04-05T04:01:00;101844.22;;;2.40;79.23
66381;BME280;53177;52.648;1.214;2023-04-05T04:03:26;101841.38;;;2.31;80.26
66381;BME280;53177;52.648;1.214;2023-04-05T04:05:53;101843.56;;;2.48;79.97
66381;BME280;53177;52.648;1.214;2023-04-05T04:08:18;101842.91;;;2.55;79.39
66381;BME280;53177;52.648;1.214;2023-04-05T04:10:44;101836.72;;;2.51;79.33
66381;BME280;53177;52.648;1.214;2023-04-05T04:13:09;101831.34;;;2.47;79.80
66381;BME280;53177;52.648;1.214;2023-04-05T04:15:35;101829.50;;;2.42;80.04
66381;BME280;53177;52.648;1.214;2023-04-05T04:18:00;101837.50;;;2.49;79.85
66381;BME280;53177;52.648;1.214;2023-04-05T04:20:26;101830.25;;;2.38;80.08
66381;BME280;53177;52.648;1.214;2023-04-05T04:22:52;101833.16;;;2.49;80.06
66381;BME280;53177;52.648;1.214;2023-04-05T04:25:18;101833.00;;;2.43;80.38
66381;BME280;53177;52.648;1.214;2023-04-05T04:27:44;101834.88;;;2.49;80.04
66381;BME280;53177;52.648;1.214;2023-04-05T04:30:13;101833.75;;;2.39;80.69
66381;BME280;53177;52.648;1.214;2023-04-05T04:32:40;101822.78;;;2.21;81.46
66381;BME280;53177;52.648;1.214;2023-04-05T04:35:18;101825.53;;;1.95;82.96
66381;BME280;53177;52.648;1.214;2023-04-05T04:37:51;101823.31;;;2.09;82.37
66381;BME280;53177;52.648;1.214;2023-04-05T04:40:20;101830.03;;;2.31;81.65
66381;BME280;53177;52.648;1.214;2023-04-05T04:42:47;101823.03;;;2.00;83.41
66381;BME280;53177;52.648;1.214;2023-04-05T04:45:17;101821.75;;;2.14;82.60
66381;BME280;53177;52.648;1.214;2023-04-05T04:47:47;101831.81;;;2.32;81.27
66381;BME280;53177;52.648;1.214;2023-04-05T04:50:14;101810.00;;;2.30;81.34
66381;BME280;53177;52.648;1.214;2023-04-05T04:52:41;101823.53;;;2.48;80.75
66381;BME280;53177;52.648;1.214;2023-04-05T04:55:12;101815.84;;;2.53;80.47
66381;BME280;53177;52.648;1.214;2023-04-05T04:57:46;101821.19;;;2.57;80.18
66381;BME280;53177;52.648;1.214;2023-04-05T05:00:13;101815.78;;;2.50;80.15
66381;BME280;53177;52.648;1.214;2023-04-05T05:02:41;101819.97;;;2.44;80.99
66381;BME280;53177;52.648;1.214;2023-04-05T05:05:10;101814.66;;;2.40;81.06
66381;BME280;53177;52.648;1.214;2023-04-05T05:07:39;101817.28;;;2.41;80.92
66381;BME280;53177;52.648;1.214;2023-04-05T05:10:09;101815.78;;;2.20;81.53
66381;BME280;53177;52.648;1.214;2023-04-05T05:12:37;101813.03;;;2.14;81.74
66381;BME280;53177;52.648;1.214;2023-04-05T05:15:03;101812.66;;;2.31;81.48
66381;BME280;53177;52.648;1.214;2023-04-05T05:17:29;101806.91;;;2.43;81.09
66381;BME280;53177;52.648;1.214;2023-04-05T05:19:56;101818.31;;;2.47;80.43
66381;BME280;53177;52.648;1.214;2023-04-05T05:22:24;101814.00;;;2.49;80.81
66381;BME280;53177;52.648;1.214;2023-04-05T05:24:49;101810.84;;;2.29;81.41
66381;BME280;53177;52.648;1.214;2023-04-05T05:27:15;101823.31;;;2.39;81.19
66381;BME280;53177;52.648;1.214;2023-04-05T05:29:40;101824.75;;;2.29;81.35
66381;BME280;53177;52.648;1.214;2023-04-05T05:32:07;101826.53;;;2.30;81.56
66381;BME280;53177;52.648;1.214;2023-04-05T05:34:33;101819.44;;;2.26;81.78
66381;BME280;53177;52.648;1.214;2023-04-05T05:36:58;101827.41;;;2.31;81.84
66381;BME280;53177;52.648;1.214;2023-04-05T05:39:24;101823.56;;;1.88;83.76
66381;BME280;53177;52.648;1.214;2023-04-05T05:41:49;101825.19;;;1.85;84.62
66381;BME280;53177;52.648;1.214;2023-04-05T05:44:15;101827.16;;;1.92;83.87
66381;BME280;53177;52.648;1.214;2023-04-05T05:46:40;101826.22;;;1.90;84.26
66381;BME280;53177;52.648;1.214;2023-04-05T05:49:05;101824.50;;;1.90;84.22
66381;BME280;53177;52.648;1.214;2023-04-05T05:51:31;101828.31;;;2.02;83.91
66381;BME280;53177;52.648;1.214;2023-04-05T05:53:57;101824.41;;;1.87;84.59
66381;BME280;53177;52.648;1.214;2023-04-05T05:56:23;101821.13;;;1.94;84.50
66381;BME280;53177;52.648;1.214;2023-04-05T05:58:48;101826.72;;;2.07;83.93
66381;BME280;53177;52.648;1.214;2023-04-05T06:01:13;101823.59;;;1.90;84.58
66381;BME280;53177;52.648;1.214;2023-04-05T06:03:39;101815.31;;;1.75;85.32
66381;BME280;53177;52.648;1.214;2023-04-05T06:06:04;101819.94;;;1.83;86.03
66381;BME280;53177;52.648;1.214;2023-04-05T06:08:32;101817.69;;;1.95;85.21
66381;BME280;53177;52.648;1.214;2023-04-05T06:10:58;101820.75;;;1.81;86.06
66381;BME280;53177;52.648;1.214;2023-04-05T06:13:24;101816.91;;;1.70;86.22
66381;BME280;53177;52.648;1.214;2023-04-05T06:15:49;101820.19;;;1.64;87.86
66381;BME280;53177;52.648;1.214;2023-04-05T06:18:15;101814.91;;;1.61;87.94
66381;BME280;53177;52.648;1.214;2023-04-05T06:20:41;101808.47;;;1.78;87.74
66381;BME280;53177;52.648;1.214;2023-04-05T06:23:09;101811.16;;;1.81;86.86
66381;BME280;53177;52.648;1.214;2023-04-05T06:25:34;101808.31;;;1.74;87.24
66381;BME280;53177;52.648;1.214;2023-04-05T06:28:02;101817.78;;;1.99;86.96
66381;BME280;53177;52.648;1.214;2023-04-05T06:30:29;101812.81;;;2.08;87.05
66381;BME280;53177;52.648;1.214;2023-04-05T06:32:56;101809.38;;;2.09;86.45
66381;BME280;53177;52.648;1.214;2023-04-05T06:35:22;101805.97;;;2.11;86.66
66381;BME280;53177;52.648;1.214;2023-04-05T06:37:47;101808.50;;;2.08;86.57
66381;BME280;53177;52.648;1.214;2023-04-05T06:40:14;101805.44;;;2.23;86.53
66381;BME280;53177;52.648;1.214;2023-04-05T06:42:40;101795.59;;;2.13;86.98
66381;BME280;53177;52.648;1.214;2023-04-05T06:45:06;101799.97;;;2.14;88.22
66381;BME280;53177;52.648;1.214;2023-04-05T06:47:36;101797.44;;;2.17;88.67
66381;BME280;53177;52.648;1.214;2023-04-05T06:50:03;101789.94;;;1.98;89.84
66381;BME280;53177;52.648;1.214;2023-04-05T06:52:28;101792.91;;;2.11;89.32
66381;BME280;53177;52.648;1.214;2023-04-05T06:54:54;101790.66;;;2.23;88.73
66381;BME280;53177;52.648;1.214;2023-04-05T06:57:19;101788.69;;;2.15;89.65
66381;BME280;53177;52.648;1.214;2023-04-05T06:59:44;101795.59;;;2.13;90.07
66381;BME280;53177;52.648;1.214;2023-04-05T07:02:10;101801.84;;;2.19;89.73
66381;BME280;53177;52.648;1.214;2023-04-05T07:04:36;101789.47;;;2.42;88.78
66381;BME280;53177;52.648;1.214;2023-04-05T07:07:02;101786.03;;;2.44;87.61
66381;BME280;53177;52.648;1.214;2023-04-05T07:09:29;101787.66;;;2.39;88.06
66381;BME280;53177;52.648;1.214;2023-04-05T07:11:57;101789.72;;;2.51;88.26
66381;BME280;53177;52.648;1.214;2023-04-05T07:14:22;101785.09;;;2.74;87.93
66381;BME280;53177;52.648;1.214;2023-04-05T07:16:47;101782.19;;;2.62;88.40
66381;BME280;53177;52.648;1.214;2023-04-05T07:19:13;101775.13;;;2.59;89.42
66381;BME280;53177;52.648;1.214;2023-04-05T07:21:38;101775.19;;;2.61;89.54
66381;BME280;53177;52.648;1.214;2023-04-05T07:24:04;101766.66;;;2.68;89.54
66381;BME280;53177;52.648;1.214;2023-04-05T07:26:30;101759.28;;;2.86;88.54
66381;BME280;53177;52.648;1.214;2023-04-05T07:28:59;101758.75;;;2.99;87.81
66381;BME280;53177;52.648;1.214;2023-04-05T07:31:24;101760.63;;;3.05;88.94
66381;BME280;53177;52.648;1.214;2023-04-05T07:33:49;101760.13;;;3.19;88.46
66381;BME280;53177;52.648;1.214;2023-04-05T07:36:15;101751.69;;;3.31;86.89
66381;BME280;53177;52.648;1.214;2023-04-05T07:38:41;101747.41;;;3.34;87.11
66381;BME280;53177;52.648;1.214;2023-04-05T07:41:06;101748.72;;;3.53;87.34
66381;BME280;53177;52.648;1.214;2023-04-05T07:43:31;101746.25;;;3.61;85.96
66381;BME280;53177;52.648;1.214;2023-04-05T07:46:03;101749.16;;;3.73;86.77
66381;BME280;53177;52.648;1.214;2023-04-05T07:48:29;101747.75;;;3.90;86.13
66381;BME280;53177;52.648;1.214;2023-04-05T07:50:55;101743.00;;;4.13;86.15
66381;BME280;53177;52.648;1.214;2023-04-05T07:53:20;101757.28;;;4.30;85.34
66381;BME280;53177;52.648;1.214;2023-04-05T07:55:45;101753.09;;;4.38;85.01
66381;BME280;53177;52.648;1.214;2023-04-05T07:58:11;101748.91;;;4.48;84.18
66381;BME280;53177;52.648;1.214;2023-04-05T08:00:37;101751.56;;;4.49;83.53
66381;BME280;53177;52.648;1.214;2023-04-05T08:03:02;101751.69;;;4.57;83.81
66381;BME280;53177;52.648;1.214;2023-04-05T08:05:29;101745.75;;;4.65;83.69
66381;BME280;53177;52.648;1.214;2023-04-05T08:07:54;101737.91;;;4.67;84.07
66381;BME280;53177;52.648;1.214;2023-04-05T08:10:23;101739.91;;;4.80;83.78
66381;BME280;53177;52.648;1.214;2023-04-05T08:12:49;101737.31;;;4.84;84.09
66381;BME280;53177;52.648;1.214;2023-04-05T08:15:15;101744.44;;;4.90;83.52
66381;BME280;53177;52.648;1.214;2023-04-05T08:17:40;101742.06;;;5.07;84.09
66381;BME280;53177;52.648;1.214;2023-04-05T08:20:06;101743.13;;;5.16;84.15
66381;BME280;53177;52.648;1.214;2023-04-05T08:22:31;101741.66;;;5.35;83.75
66381;BME280;53177;52.648;1.214;2023-04-05T08:24:57;101736.53;;;5.44;83.73
66381;BME280;53177;52.648;1.214;2023-04-05T08:27:22;101740.13;;;5.51;83.06
66381;BME280;53177;52.648;1.214;2023-04-05T08:29:47;101732.34;;;5.57;83.32
66381;BME280;53177;52.648;1.214;2023-04-05T08:32:13;101735.91;;;5.60;82.99
66381;BME280;53177;52.648;1.214;2023-04-05T08:34:38;101732.41;;;5.61;82.23
66381;BME280;53177;52.648;1.214;2023-04-05T08:37:03;101741.19;;;5.63;82.04
66381;BME280;53177;52.648;1.214;2023-04-05T08:39:29;101737.69;;;5.66;81.70
66381;BME280;53177;52.648;1.214;2023-04-05T08:42:10;101739.59;;;5.74;81.99
66381;BME280;53177;52.648;1.214;2023-04-05T08:44:36;101732.78;;;5.87;82.01
66381;BME280;53177;52.648;1.214;2023-04-05T08:47:02;101733.84;;;6.01;81.66
66381;BME280;53177;52.648;1.214;2023-04-05T08:49:27;101733.50;;;6.49;80.72
66381;BME280;53177;52.648;1.214;2023-04-05T08:51:53;101732.84;;;6.73;79.47
66381;BME280;53177;52.648;1.214;2023-04-05T08:54:19;101723.50;;;7.05;79.25
66381;BME280;53177;52.648;1.214;2023-04-05T08:56:46;101736.66;;;7.10;78.38
66381;BME280;53177;52.648;1.214;2023-04-05T08:59:15;101727.03;;;7.10;77.79
66381;BME280;53177;52.648;1.214;2023-04-05T09:01:43;101731.53;;;7.23;77.88
66381;BME280;53177;52.648;1.214;2023-04-05T09:04:19;101734.38;;;7.60;76.11
66381;BME280;53177;52.648;1.214;2023-04-05T09:06:46;101737.06;;;7.69;75.72
66381;BME280;53177;52.648;1.214;2023-04-05T09:09:14;101729.31;;;7.96;75.63
66381;BME280;53177;52.648;1.214;2023-04-05T09:11:39;101728.50;;;8.15;73.21
66381;BME280;53177;52.648;1.214;2023-04-05T09:14:07;101721.47;;;8.11;73.08
66381;BME280;53177;52.648;1.214;2023-04-05T09:16:32;101727.56;;;8.03;72.33
66381;BME280;53177;52.648;1.214;2023-04-05T09:19:00;101728.44;;;8.03;73.25
66381;BME280;53177;52.648;1.214;2023-04-05T09:21:27;101726.75;;;8.13;74.53
66381;BME280;53177;52.648;1.214;2023-04-05T09:23:53;101731.09;;;8.03;73.43
66381;BME280;53177;52.648;1.214;2023-04-05T09:26:21;101727.72;;;8.33;73.42
66381;BME280;53177;52.648;1.214;2023-04-05T09:28:47;101722.47;;;8.51;72.20
66381;BME280;53177;52.648;1.214;2023-04-05T09:31:32;101719.84;;;8.66;71.87
66381;BME280;53177;52.648;1.214;2023-04-05T09:33:59;101715.50;;;8.79;70.95
66381;BME280;53177;52.648;1.214;2023-04-05T09:36:26;101715.47;;;8.91;70.68
66381;BME280;53177;52.648;1.214;2023-04-05T09:38:52;101719.00;;;8.98;69.74
66381;BME280;53177;52.648;1.214;2023-04-05T09:41:17;101711.97;;;9.09;69.41
66381;BME280;53177;52.648;1.214;2023-04-05T09:43:43;101707.53;;;9.17;68.71
66381;BME280;53177;52.648;1.214;2023-04-05T09:46:28;101715.47;;;9.15;69.91
66381;BME280;53177;52.648;1.214;2023-04-05T09:48:55;101709.31;;;9.22;68.36
66381;BME280;53177;52.648;1.214;2023-04-05T09:51:21;101709.28;;;9.25;67.84
66381;BME280;53177;52.648;1.214;2023-04-05T09:56:25;101707.53;;;9.38;68.37
66381;BME280;53177;52.648;1.214;2023-04-05T09:58:51;101707.53;;;9.32;67.99
66381;BME280;53177;52.648;1.214;2023-04-05T10:01:17;101700.50;;;9.29;65.38
66381;BME280;53177;52.648;1.214;2023-04-05T10:03:47;101697.78;;;9.61;66.98
66381;BME280;53177;52.648;1.214;2023-04-05T10:06:14;101697.78;;;9.63;65.66
66381;BME280;53177;52.648;1.214;2023-04-05T10:08:40;101700.41;;;9.67;64.37
66381;BME280;53177;52.648;1.214;2023-04-05T10:11:05;101698.63;;;9.74;65.66
66381;BME280;53177;52.648;1.214;2023-04-05T10:13:31;101706.50;;;9.83;63.94
66381;BME280;53177;52.648;1.214;2023-04-05T10:15:58;101696.84;;;9.77;64.95
66381;BME280;53177;52.648;1.214;2023-04-05T10:18:29;101695.06;;;9.79;64.75
66381;BME280;53177;52.648;1.214;2023-04-05T10:21:03;101698.50;;;9.98;63.25
66381;BME280;53177;52.648;1.214;2023-04-05T10:23:30;101701.16;;;10.01;63.79
66381;BME280;53177;52.648;1.214;2023-04-05T10:28:32;101691.41;;;10.09;61.88
66381;BME280;53177;52.648;1.214;2023-04-05T10:31:17;101688.75;;;10.23;63.64
66381;BME280;53177;52.648;1.214;2023-04-05T10:33:52;101684.25;;;10.36;62.54
66381;BME280;53177;52.648;1.214;2023-04-05T10:39:00;101674.41;;;10.60;62.42
66381;BME280;53177;52.648;1.214;2023-04-05T10:41:33;101668.91;;;10.86;59.86
66381;BME280;53177;52.648;1.214;2023-04-05T10:43:59;101666.19;;;10.92;61.07
66381;BME280;53177;52.648;1.214;2023-04-05T10:46:26;101665.19;;;11.02;60.39
66381;BME280;53177;52.648;1.214;2023-04-05T10:51:23;101662.34;;;11.23;59.17
66381;BME280;53177;52.648;1.214;2023-04-05T10:53:49;101653.44;;;11.32;59.80
66381;BME280;53177;52.648;1.214;2023-04-05T10:56:15;101656.97;;;11.31;56.78
66381;BME280;53177;52.648;1.214;2023-04-05T10:58:42;101650.69;;;11.40;58.31
66381;BME280;53177;52.648;1.214;2023-04-05T11:01:09;101652.28;;;11.54;58.50
66381;BME280;53177;52.648;1.214;2023-04-05T11:03:46;101640.66;;;11.67;57.06
66381;BME280;53177;52.648;1.214;2023-04-05T11:06:31;101642.44;;;11.67;59.47
66381;BME280;53177;52.648;1.214;2023-04-05T11:09:10;101641.50;;;11.74;57.94
66381;BME280;53177;52.648;1.214;2023-04-05T11:11:39;101636.09;;;11.80;57.39
66381;BME280;53177;52.648;1.214;2023-04-05T11:16:49;101633.78;;;11.53;57.20
66381;BME280;53177;52.648;1.214;2023-04-05T11:19:18;101626.69;;;11.56;59.14
66381;BME280;53177;52.648;1.214;2023-04-05T11:21:44;101623.59;;;11.93;57.72
66381;BME280;53177;52.648;1.214;2023-04-05T11:24:11;101617.09;;;12.13;60.54
66381;BME280;53177;52.648;1.214;2023-04-05T11:29:07;101606.66;;;12.01;56.94
66381;BME280;53177;52.648;1.214;2023-04-05T11:31:32;101602.16;;;12.08;58.04
66381;BME280;53177;52.648;1.214;2023-04-05T11:33:59;101598.75;;;12.53;58.39
66381;BME280;53177;52.648;1.214;2023-04-05T11:36:44;101592.09;;;12.28;59.58
66381;BME280;53177;52.648;1.214;2023-04-05T11:42:01;101586.59;;;12.92;59.34
66381;BME280;53177;52.648;1.214;2023-04-05T11:47:06;101580.91;;;13.13;57.56
66381;BME280;53177;52.648;1.214;2023-04-05T11:49:33;101586.22;;;13.12;58.25
66381;BME280;53177;52.648;1.214;2023-04-05T11:52:09;101582.31;;;13.31;56.60
66381;BME280;53177;52.648;1.214;2023-04-05T11:54:34;101570.34;;;13.10;59.79
66381;BME280;53177;52.648;1.214;2023-04-05T11:57:00;101569.63;;;12.99;55.03
66381;BME280;53177;52.648;1.214;2023-04-05T11:59:33;101569.19;;;13.24;58.88
66381;BME280;53177;52.648;1.214;2023-04-05T12:02:00;101561.84;;;13.36;53.26
66381;BME280;53177;52.648;1.214;2023-04-05T12:04:26;101560.63;;;13.52;52.63
66381;BME280;53177;52.648;1.214;2023-04-05T12:12:27;101563.56;;;13.79;55.36
66381;BME280;53177;52.648;1.214;2023-04-05T12:14:58;101548.25;;;13.90;56.64
66381;BME280;53177;52.648;1.214;2023-04-05T12:20:09;101546.19;;;13.64;59.00
66381;BME280;53177;52.648;1.214;2023-04-05T12:22:39;101539.44;;;13.88;53.75
66381;BME280;53177;52.648;1.214;2023-04-05T12:25:05;101532.78;;;13.69;54.67
66381;BME280;53177;52.648;1.214;2023-04-05T12:27:32;101537.84;;;13.41;53.15
66381;BME280;53177;52.648;1.214;2023-04-05T12:30:24;101538.72;;;13.41;53.12
66381;BME280;53177;52.648;1.214;2023-04-05T12:32:55;101547.28;;;13.55;55.27
66381;BME280;53177;52.648;1.214;2023-04-05T12:35:31;101534.22;;;13.85;54.79
66381;BME280;53177;52.648;1.214;2023-04-05T12:38:00;101532.25;;;14.30;55.85
66381;BME280;53177;52.648;1.214;2023-04-05T12:40:27;101532.09;;;14.37;50.05
66381;BME280;53177;52.648;1.214;2023-04-05T12:43:15;101532.28;;;13.90;52.68
66381;BME280;53177;52.648;1.214;2023-04-05T12:45:44;101531.56;;;14.20;50.69
66381;BME280;53177;52.648;1.214;2023-04-05T12:48:18;101528.72;;;13.91;46.71
66381;BME280;53177;52.648;1.214;2023-04-05T12:50:48;101533.50;;;13.77;48.42
66381;BME280;53177;52.648;1.214;2023-04-05T12:53:23;101529.19;;;14.09;56.68
66381;BME280;53177;52.648;1.214;2023-04-05T12:55:54;101516.72;;;14.11;49.74
66381;BME280;53177;52.648;1.214;2023-04-05T12:58:20;101514.00;;;13.76;49.11
66381;BME280;53177;52.648;1.214;2023-04-05T13:00:46;101510.72;;;13.65;51.02
66381;BME280;53177;52.648;1.214;2023-04-05T13:03:16;101510.44;;;14.14;48.88
66381;BME280;53177;52.648;1.214;2023-04-05T13:05:44;101505.06;;;14.17;46.75
66381;BME280;53177;52.648;1.214;2023-04-05T13:08:09;101506.13;;;14.10;46.02
66381;BME280;53177;52.648;1.214;2023-04-05T13:10:34;101495.38;;;14.14;47.77
66381;BME280;53177;52.648;1.214;2023-04-05T13:13:00;101490.59;;;14.27;48.46
66381;BME280;53177;52.648;1.214;2023-04-05T13:15:25;101498.91;;;14.15;47.00
66381;BME280;53177;52.648;1.214;2023-04-05T13:17:51;101499.50;;;14.26;50.18
66381;BME280;53177;52.648;1.214;2023-04-05T13:20:20;101490.00;;;14.16;48.28
66381;BME280;53177;52.648;1.214;2023-04-05T13:22:45;101492.88;;;14.44;44.95
66381;BME280;53177;52.648;1.214;2023-04-05T13:25:11;101492.78;;;14.47;58.74
66381;BME280;53177;52.648;1.214;2023-04-05T13:27:37;101489.91;;;14.54;53.46
66381;BME280;53177;52.648;1.214;2023-04-05T13:30:03;101484.34;;;14.63;46.26
66381;BME280;53177;52.648;1.214;2023-04-05T13:32:30;101480.78;;;13.95;45.90
66381;BME280;53177;52.648;1.214;2023-04-05T13:34:56;101475.88;;;14.82;55.15
66381;BME280;53177;52.648;1.214;2023-04-05T13:37:21;101485.13;;;14.99;55.37